Portada
METAR-TAF:

METAR-TAF

Aeroports :

Satu Mare, Romania

latitud: 47-48N, longitud: 022-53E, altitud: 123 m

Observació

L'informe es va fer fa 34 minuts, a les 01:30 UTC
Vent 3 kt del Oest
Temperatura 8°C
Humitat 100%
Pressió 1022 hPa
Visibilitat 10 km o més

METAR: LRSM 280130Z AUTO 28003KT 9999 SCT120/// BKN130/// 08/08 Q1022

Hora: 05:04 (02:04 UTC)

Pronòstic

L'informe es va fer fa 12 hores i 4 minuts, a les 14:00 UTC
Pronòstic vàlid del 27 a les 15 UTC al 28 a les 00 UTC
Vent 10 kt del Nord/Nord-Est
Visibilitat 10 km o més
Núvols disperses a una alçada de 4000 ft
Temporalment
l' 27 a les 15 UTC al 27 a les 17 UTC
Visibilitat: 5000 m
Núvols disperses a una alçada de 3500 ft, Cumulonimbus.
tempesta, pluja

TAF: LRSM 271400Z 2715/2800 02010KT 9999 SCT040 TEMPO 2715/2717 5000 -TSRA SCT035CB

Observacions i pronòstics meteorològics de més de 4000 aeroports (METAR i TAF).

Les estacions disponibles són els punts grocs i vermells al mapa.

Posi el ratolí al punt desitjat per veure el nom de l'estació.

Feu clic per veure les observacions i els pronòstics meteorològics.

Per canviar el mapa: feu clic els botons verds amb una creu de color negre per apropar; al botó verd amb un guió per allunyar la imatge; o en les fletxes verdes per a mapes adjacents.


METAR-TAF: